sensor_id;sensor_type;location;lat;lon;timestamp;P1;durP1;ratioP1;P2;durP2;ratioP2
22967;SDS011;11650;48.106;-1.696;2022-10-26T01:03:45;12.13;;;2.20;;
22967;SDS011;11650;48.106;-1.696;2022-10-26T01:06:12;12.93;;;2.40;;
22967;SDS011;11650;48.106;-1.696;2022-10-26T01:08:39;9.47;;;2.60;;
22967;SDS011;11650;48.106;-1.696;2022-10-26T01:11:07;14.17;;;2.57;;
22967;SDS011;11650;48.106;-1.696;2022-10-26T01:13:33;13.13;;;2.40;;
22967;SDS011;11650;48.106;-1.696;2022-10-26T01:27:30;11.37;;;2.40;;
22967;SDS011;11650;48.106;-1.696;2022-10-26T01:38:31;19.77;;;2.63;;
22967;SDS011;11650;48.106;-1.696;2022-10-26T01:41:10;11.97;;;2.37;;
22967;SDS011;11650;48.106;-1.696;2022-10-26T01:43:48;10.40;;;2.10;;
22967;SDS011;11650;48.106;-1.696;2022-10-26T01:46:19;9.57;;;1.80;;
22967;SDS011;11650;48.106;-1.696;2022-10-26T01:48:48;14.57;;;2.37;;
22967;SDS011;11650;48.106;-1.696;2022-10-26T01:51:17;15.23;;;2.17;;
22967;SDS011;11650;48.106;-1.696;2022-10-26T01:53:47;14.67;;;2.60;;
22967;SDS011;11650;48.106;-1.696;2022-10-26T01:56:16;10.33;;;1.87;;
22967;SDS011;11650;48.106;-1.696;2022-10-26T01:58:55;15.07;;;2.20;;
22967;SDS011;11650;48.106;-1.696;2022-10-26T02:15:24;12.53;;;1.97;;
22967;SDS011;11650;48.106;-1.696;2022-10-26T02:20:38;11.57;;;1.97;;
22967;SDS011;11650;48.106;-1.696;2022-10-26T02:23:09;12.30;;;2.23;;
22967;SDS011;11650;48.106;-1.696;2022-10-26T02:25:41;15.57;;;2.20;;
22967;SDS011;11650;48.106;-1.696;2022-10-26T02:28:12;19.40;;;2.40;;
22967;SDS011;11650;48.106;-1.696;2022-10-26T02:30:43;15.83;;;2.07;;
22967;SDS011;11650;48.106;-1.696;2022-10-26T02:33:12;9.37;;;2.10;;
22967;SDS011;11650;48.106;-1.696;2022-10-26T02:35:39;16.57;;;2.67;;
22967;SDS011;11650;48.106;-1.696;2022-10-26T02:38:08;18.57;;;3.17;;
22967;SDS011;11650;48.106;-1.696;2022-10-26T02:40:36;20.93;;;2.80;;
22967;SDS011;11650;48.106;-1.696;2022-10-26T02:43:05;15.57;;;2.23;;
22967;SDS011;11650;48.106;-1.696;2022-10-26T02:45:38;14.83;;;2.50;;
22967;SDS011;11650;48.106;-1.696;2022-10-26T02:48:10;17.83;;;2.73;;
22967;SDS011;11650;48.106;-1.696;2022-10-26T02:50:43;14.43;;;2.67;;
22967;SDS011;11650;48.106;-1.696;2022-10-26T02:53:31;18.57;;;2.50;;
22967;SDS011;11650;48.106;-1.696;2022-10-26T02:56:05;18.60;;;2.83;;
22967;SDS011;11650;48.106;-1.696;2022-10-26T02:58:36;19.27;;;3.30;;
22967;SDS011;11650;48.106;-1.696;2022-10-26T03:01:05;20.57;;;3.37;;
22967;SDS011;11650;48.106;-1.696;2022-10-26T03:03:32;15.93;;;3.17;;
22967;SDS011;11650;48.106;-1.696;2022-10-26T03:05:57;20.30;;;2.97;;
22967;SDS011;11650;48.106;-1.696;2022-10-26T03:08:23;21.03;;;3.70;;
22967;SDS011;11650;48.106;-1.696;2022-10-26T03:10:49;20.43;;;2.93;;
22967;SDS011;11650;48.106;-1.696;2022-10-26T03:13:14;26.30;;;3.67;;
22967;SDS011;11650;48.106;-1.696;2022-10-26T03:15:40;24.23;;;3.40;;
22967;SDS011;11650;48.106;-1.696;2022-10-26T03:18:06;14.70;;;3.17;;
22967;SDS011;11650;48.106;-1.696;2022-10-26T03:20:31;24.47;;;4.13;;
22967;SDS011;11650;48.106;-1.696;2022-10-26T03:22:57;24.83;;;3.43;;
22967;SDS011;11650;48.106;-1.696;2022-10-26T03:25:23;27.20;;;3.43;;
22967;SDS011;11650;48.106;-1.696;2022-10-26T03:27:56;24.67;;;4.10;;
22967;SDS011;11650;48.106;-1.696;2022-10-26T03:30:22;27.73;;;3.70;;
22967;SDS011;11650;48.106;-1.696;2022-10-26T03:32:48;31.77;;;4.03;;
22967;SDS011;11650;48.106;-1.696;2022-10-26T03:35:14;24.70;;;3.60;;
22967;SDS011;11650;48.106;-1.696;2022-10-26T03:37:39;27.97;;;3.73;;
22967;SDS011;11650;48.106;-1.696;2022-10-26T03:40:05;30.83;;;4.30;;
22967;SDS011;11650;48.106;-1.696;2022-10-26T03:42:37;26.70;;;4.33;;
22967;SDS011;11650;48.106;-1.696;2022-10-26T03:45:04;21.60;;;3.70;;
22967;SDS011;11650;48.106;-1.696;2022-10-26T03:47:30;28.33;;;4.37;;
22967;SDS011;11650;48.106;-1.696;2022-10-26T03:49:56;31.43;;;4.40;;
22967;SDS011;11650;48.106;-1.696;2022-10-26T03:52:22;25.90;;;3.83;;
22967;SDS011;11650;48.106;-1.696;2022-10-26T03:54:49;27.43;;;4.03;;
22967;SDS011;11650;48.106;-1.696;2022-10-26T03:57:14;35.27;;;4.30;;
22967;SDS011;11650;48.106;-1.696;2022-10-26T03:59:40;31.47;;;4.10;;
22967;SDS011;11650;48.106;-1.696;2022-10-26T04:02:06;28.17;;;4.17;;
22967;SDS011;11650;48.106;-1.696;2022-10-26T04:04:31;24.63;;;4.03;;
22967;SDS011;11650;48.106;-1.696;2022-10-26T04:06:57;33.53;;;5.10;;
22967;SDS011;11650;48.106;-1.696;2022-10-26T04:09:23;23.30;;;3.80;;
22967;SDS011;11650;48.106;-1.696;2022-10-26T04:11:48;24.27;;;4.20;;
22967;SDS011;11650;48.106;-1.696;2022-10-26T04:14:14;31.40;;;3.70;;
22967;SDS011;11650;48.106;-1.696;2022-10-26T04:16:40;28.33;;;3.73;;
22967;SDS011;11650;48.106;-1.696;2022-10-26T04:19:05;24.10;;;3.60;;
22967;SDS011;11650;48.106;-1.696;2022-10-26T04:21:31;35.67;;;4.47;;
22967;SDS011;11650;48.106;-1.696;2022-10-26T04:23:57;25.27;;;4.10;;
22967;SDS011;11650;48.106;-1.696;2022-10-26T04:26:23;28.53;;;4.03;;
22967;SDS011;11650;48.106;-1.696;2022-10-26T04:28:49;24.73;;;3.50;;
22967;SDS011;11650;48.106;-1.696;2022-10-26T04:31:14;25.43;;;3.67;;
22967;SDS011;11650;48.106;-1.696;2022-10-26T04:33:40;27.77;;;3.63;;
22967;SDS011;11650;48.106;-1.696;2022-10-26T04:36:06;19.33;;;3.37;;
22967;SDS011;11650;48.106;-1.696;2022-10-26T04:38:32;22.03;;;3.30;;
22967;SDS011;11650;48.106;-1.696;2022-10-26T04:40:57;25.90;;;3.87;;
22967;SDS011;11650;48.106;-1.696;2022-10-26T04:43:23;31.87;;;3.97;;
22967;SDS011;11650;48.106;-1.696;2022-10-26T04:45:48;22.87;;;3.70;;
22967;SDS011;11650;48.106;-1.696;2022-10-26T04:48:14;25.20;;;4.10;;
22967;SDS011;11650;48.106;-1.696;2022-10-26T04:50:40;20.37;;;3.37;;
22967;SDS011;11650;48.106;-1.696;2022-10-26T04:53:06;24.40;;;3.40;;
22967;SDS011;11650;48.106;-1.696;2022-10-26T04:55:33;27.67;;;4.03;;
22967;SDS011;11650;48.106;-1.696;2022-10-26T04:57:59;25.33;;;4.23;;
22967;SDS011;11650;48.106;-1.696;2022-10-26T05:00:25;23.97;;;4.10;;
22967;SDS011;11650;48.106;-1.696;2022-10-26T05:02:51;20.53;;;3.30;;
22967;SDS011;11650;48.106;-1.696;2022-10-26T05:05:22;23.90;;;3.77;;
22967;SDS011;11650;48.106;-1.696;2022-10-26T05:07:52;21.77;;;3.77;;
22967;SDS011;11650;48.106;-1.696;2022-10-26T05:10:21;29.57;;;3.93;;
22967;SDS011;11650;48.106;-1.696;2022-10-26T05:12:51;23.53;;;3.20;;
22967;SDS011;11650;48.106;-1.696;2022-10-26T05:15:17;20.00;;;3.20;;
22967;SDS011;11650;48.106;-1.696;2022-10-26T05:17:43;24.30;;;3.20;;
22967;SDS011;11650;48.106;-1.696;2022-10-26T05:20:09;22.53;;;3.60;;
22967;SDS011;11650;48.106;-1.696;2022-10-26T05:22:37;23.97;;;3.57;;
22967;SDS011;11650;48.106;-1.696;2022-10-26T05:25:06;21.13;;;3.33;;
22967;SDS011;11650;48.106;-1.696;2022-10-26T05:27:32;23.53;;;3.73;;
22967;SDS011;11650;48.106;-1.696;2022-10-26T05:29:58;20.33;;;3.73;;
22967;SDS011;11650;48.106;-1.696;2022-10-26T05:32:23;24.03;;;3.60;;
22967;SDS011;11650;48.106;-1.696;2022-10-26T05:34:49;15.60;;;3.03;;
22967;SDS011;11650;48.106;-1.696;2022-10-26T05:37:14;19.90;;;3.10;;
22967;SDS011;11650;48.106;-1.696;2022-10-26T05:39:40;25.00;;;3.73;;
22967;SDS011;11650;48.106;-1.696;2022-10-26T05:42:07;20.43;;;2.90;;
22967;SDS011;11650;48.106;-1.696;2022-10-26T05:44:33;22.13;;;3.33;;
22967;SDS011;11650;48.106;-1.696;2022-10-26T05:46:58;18.17;;;3.37;;
22967;SDS011;11650;48.106;-1.696;2022-10-26T05:49:24;24.13;;;3.47;;
22967;SDS011;11650;48.106;-1.696;2022-10-26T05:51:49;19.10;;;2.67;;
22967;SDS011;11650;48.106;-1.696;2022-10-26T05:54:15;20.90;;;3.00;;
22967;SDS011;11650;48.106;-1.696;2022-10-26T05:56:40;14.83;;;2.80;;
22967;SDS011;11650;48.106;-1.696;2022-10-26T05:59:14;18.10;;;3.23;;
22967;SDS011;11650;48.106;-1.696;2022-10-26T06:04:32;19.80;;;2.90;;
22967;SDS011;11650;48.106;-1.696;2022-10-26T06:07:20;18.77;;;2.77;;
22967;SDS011;11650;48.106;-1.696;2022-10-26T06:09:46;19.10;;;2.50;;
22967;SDS011;11650;48.106;-1.696;2022-10-26T06:12:13;18.70;;;2.80;;
22967;SDS011;11650;48.106;-1.696;2022-10-26T06:14:39;22.27;;;3.07;;
22967;SDS011;11650;48.106;-1.696;2022-10-26T06:17:09;17.07;;;2.97;;
22967;SDS011;11650;48.106;-1.696;2022-10-26T06:19:46;14.67;;;2.80;;
22967;SDS011;11650;48.106;-1.696;2022-10-26T06:28:04;16.53;;;3.40;;
22967;SDS011;11650;48.106;-1.696;2022-10-26T06:30:44;17.47;;;2.87;;
22967;SDS011;11650;48.106;-1.696;2022-10-26T06:33:09;19.77;;;3.30;;
22967;SDS011;11650;48.106;-1.696;2022-10-26T06:38:06;17.53;;;3.13;;
22967;SDS011;11650;48.106;-1.696;2022-10-26T06:40:36;22.30;;;3.67;;
22967;SDS011;11650;48.106;-1.696;2022-10-26T06:43:08;21.13;;;2.97;;
22967;SDS011;11650;48.106;-1.696;2022-10-26T06:45:40;18.00;;;2.70;;
22967;SDS011;11650;48.106;-1.696;2022-10-26T06:48:09;17.03;;;3.00;;
22967;SDS011;11650;48.106;-1.696;2022-10-26T06:50:45;15.63;;;2.90;;
22967;SDS011;11650;48.106;-1.696;2022-10-26T06:53:26;28.63;;;3.10;;
22967;SDS011;11650;48.106;-1.696;2022-10-26T06:56:11;19.37;;;3.33;;
22967;SDS011;11650;48.106;-1.696;2022-10-26T06:58:37;16.50;;;3.60;;
22967;SDS011;11650;48.106;-1.696;2022-10-26T07:01:04;12.87;;;2.60;;
22967;SDS011;11650;48.106;-1.696;2022-10-26T07:03:31;16.90;;;3.27;;
22967;SDS011;11650;48.106;-1.696;2022-10-26T07:05:56;21.20;;;3.03;;
22967;SDS011;11650;48.106;-1.696;2022-10-26T07:08:22;17.43;;;2.60;;
22967;SDS011;11650;48.106;-1.696;2022-10-26T07:10:48;14.53;;;2.57;;
22967;SDS011;11650;48.106;-1.696;2022-10-26T07:13:14;18.03;;;2.50;;
22967;SDS011;11650;48.106;-1.696;2022-10-26T07:15:39;24.13;;;3.57;;
22967;SDS011;11650;48.106;-1.696;2022-10-26T07:18:07;18.23;;;3.30;;
22967;SDS011;11650;48.106;-1.696;2022-10-26T07:20:36;18.70;;;2.90;;
22967;SDS011;11650;48.106;-1.696;2022-10-26T07:23:04;21.73;;;3.30;;
22967;SDS011;11650;48.106;-1.696;2022-10-26T07:25:35;25.50;;;3.40;;
22967;SDS011;11650;48.106;-1.696;2022-10-26T07:28:04;16.97;;;3.00;;
22967;SDS011;11650;48.106;-1.696;2022-10-26T07:30:32;21.40;;;3.23;;
22967;SDS011;11650;48.106;-1.696;2022-10-26T07:33:31;18.60;;;3.47;;
22967;SDS011;11650;48.106;-1.696;2022-10-26T07:35:50;22.20;;;3.23;;
22967;SDS011;11650;48.106;-1.696;2022-10-26T07:38:16;15.50;;;2.90;;
22967;SDS011;11650;48.106;-1.696;2022-10-26T07:40:42;18.97;;;2.97;;
22967;SDS011;11650;48.106;-1.696;2022-10-26T07:43:08;24.47;;;3.23;;
22967;SDS011;11650;48.106;-1.696;2022-10-26T07:45:33;24.50;;;3.37;;
22967;SDS011;11650;48.106;-1.696;2022-10-26T07:48:00;21.50;;;3.60;;
22967;SDS011;11650;48.106;-1.696;2022-10-26T07:50:26;17.57;;;3.43;;
22967;SDS011;11650;48.106;-1.696;2022-10-26T07:52:52;24.23;;;3.00;;
22967;SDS011;11650;48.106;-1.696;2022-10-26T07:55:18;18.93;;;2.73;;
22967;SDS011;11650;48.106;-1.696;2022-10-26T07:57:44;21.07;;;3.37;;
22967;SDS011;11650;48.106;-1.696;2022-10-26T08:00:10;24.50;;;3.50;;
22967;SDS011;11650;48.106;-1.696;2022-10-26T08:02:36;18.40;;;2.80;;
22967;SDS011;11650;48.106;-1.696;2022-10-26T08:05:02;19.67;;;3.07;;
22967;SDS011;11650;48.106;-1.696;2022-10-26T08:07:28;20.27;;;2.90;;
22967;SDS011;11650;48.106;-1.696;2022-10-26T08:09:54;13.17;;;2.60;;
22967;SDS011;11650;48.106;-1.696;2022-10-26T08:12:19;22.63;;;3.27;;
22967;SDS011;11650;48.106;-1.696;2022-10-26T08:14:45;23.87;;;3.23;;
22967;SDS011;11650;48.106;-1.696;2022-10-26T08:17:11;17.80;;;3.20;;
22967;SDS011;11650;48.106;-1.696;2022-10-26T08:19:36;22.53;;;4.13;;
22967;SDS011;11650;48.106;-1.696;2022-10-26T08:22:02;21.60;;;3.40;;
22967;SDS011;11650;48.106;-1.696;2022-10-26T08:24:28;20.70;;;2.93;;
22967;SDS011;11650;48.106;-1.696;2022-10-26T08:26:54;17.57;;;2.83;;
22967;SDS011;11650;48.106;-1.696;2022-10-26T08:29:19;18.60;;;3.37;;
22967;SDS011;11650;48.106;-1.696;2022-10-26T08:31:46;23.73;;;3.20;;
22967;SDS011;11650;48.106;-1.696;2022-10-26T08:34:12;18.77;;;3.50;;
22967;SDS011;11650;48.106;-1.696;2022-10-26T08:36:38;21.83;;;3.43;;
22967;SDS011;11650;48.106;-1.696;2022-10-26T08:39:04;18.37;;;3.07;;
22967;SDS011;11650;48.106;-1.696;2022-10-26T08:41:34;16.73;;;2.93;;
22967;SDS011;11650;48.106;-1.696;2022-10-26T08:44:22;14.93;;;3.07;;
22967;SDS011;11650;48.106;-1.696;2022-10-26T08:47:06;18.07;;;3.67;;
22967;SDS011;11650;48.106;-1.696;2022-10-26T08:49:47;17.07;;;3.00;;
22967;SDS011;11650;48.106;-1.696;2022-10-26T08:55:18;19.70;;;2.97;;
22967;SDS011;11650;48.106;-1.696;2022-10-26T08:57:47;16.40;;;2.80;;
22967;SDS011;11650;48.106;-1.696;2022-10-26T09:00:14;21.07;;;3.20;;
22967;SDS011;11650;48.106;-1.696;2022-10-26T09:02:49;17.13;;;2.90;;
22967;SDS011;11650;48.106;-1.696;2022-10-26T09:05:21;13.07;;;2.40;;
22967;SDS011;11650;48.106;-1.696;2022-10-26T09:21:46;22.03;;;3.40;;
22967;SDS011;11650;48.106;-1.696;2022-10-26T09:27:19;18.47;;;3.17;;
22967;SDS011;11650;48.106;-1.696;2022-10-26T09:29:45;17.20;;;3.47;;
22967;SDS011;11650;48.106;-1.696;2022-10-26T09:34:51;22.13;;;2.60;;
22967;SDS011;11650;48.106;-1.696;2022-10-26T09:37:24;24.73;;;3.47;;
22967;SDS011;11650;48.106;-1.696;2022-10-26T09:42:40;29.40;;;4.73;;
22967;SDS011;11650;48.106;-1.696;2022-10-26T09:45:35;14.93;;;3.07;;
22967;SDS011;11650;48.106;-1.696;2022-10-26T09:48:05;15.40;;;2.57;;
22967;SDS011;11650;48.106;-1.696;2022-10-26T09:50:58;16.17;;;2.50;;
22967;SDS011;11650;48.106;-1.696;2022-10-26T09:53:24;10.93;;;1.67;;
22967;SDS011;11650;48.106;-1.696;2022-10-26T11:10:51;8.47;;;2.10;;
22967;SDS011;11650;48.106;-1.696;2022-10-26T11:13:24;8.07;;;1.70;;
22967;SDS011;11650;48.106;-1.696;2022-10-26T11:15:58;10.43;;;2.13;;
22967;SDS011;11650;48.106;-1.696;2022-10-26T11:21:03;7.70;;;2.10;;
22967;SDS011;11650;48.106;-1.696;2022-10-26T11:23:42;8.67;;;2.00;;
22967;SDS011;11650;48.106;-1.696;2022-10-26T11:26:51;6.27;;;1.70;;
22967;SDS011;11650;48.106;-1.696;2022-10-26T11:32:27;4.93;;;1.30;;
22967;SDS011;11650;48.106;-1.696;2022-10-26T11:38:00;7.20;;;1.63;;
22967;SDS011;11650;48.106;-1.696;2022-10-26T11:40:54;6.70;;;1.37;;
22967;SDS011;11650;48.106;-1.696;2022-10-26T11:43:46;7.40;;;1.53;;
22967;SDS011;11650;48.106;-1.696;2022-10-26T11:46:15;6.97;;;2.03;;
22967;SDS011;11650;48.106;-1.696;2022-10-26T11:51:36;6.10;;;1.80;;
22967;SDS011;11650;48.106;-1.696;2022-10-26T11:54:11;7.23;;;1.80;;
22967;SDS011;11650;48.106;-1.696;2022-10-26T11:56:59;8.07;;;1.93;;
22967;SDS011;11650;48.106;-1.696;2022-10-26T14:27:46;14.27;;;2.53;;
22967;SDS011;11650;48.106;-1.696;2022-10-26T14:30:28;11.35;;;2.55;;
22967;SDS011;11650;48.106;-1.696;2022-10-26T14:32:57;10.95;;;2.20;;
22967;SDS011;11650;48.106;-1.696;2022-10-26T14:35:28;15.18;;;2.42;;
22967;SDS011;11650;48.106;-1.696;2022-10-26T14:38:01;11.07;;;2.28;;
22967;SDS011;11650;48.106;-1.696;2022-10-26T14:40:31;9.55;;;2.20;;
22967;SDS011;11650;48.106;-1.696;2022-10-26T14:43:00;9.15;;;2.22;;
22967;SDS011;11650;48.106;-1.696;2022-10-26T14:47:58;10.35;;;2.05;;
22967;SDS011;11650;48.106;-1.696;2022-10-26T14:50:25;12.60;;;2.35;;
22967;SDS011;11650;48.106;-1.696;2022-10-26T14:52:55;9.52;;;2.63;;
22967;SDS011;11650;48.106;-1.696;2022-10-26T14:55:58;6.40;;;2.05;;
22967;SDS011;11650;48.106;-1.696;2022-10-26T14:58:31;14.25;;;2.38;;
22967;SDS011;11650;48.106;-1.696;2022-10-26T15:01:14;11.45;;;2.25;;
22967;SDS011;11650;48.106;-1.696;2022-10-26T15:03:40;7.70;;;2.33;;
22967;SDS011;11650;48.106;-1.696;2022-10-26T15:08:58;11.35;;;2.50;;
22967;SDS011;11650;48.106;-1.696;2022-10-26T15:11:25;10.40;;;1.95;;
22967;SDS011;11650;48.106;-1.696;2022-10-26T15:13:52;11.88;;;2.47;;
22967;SDS011;11650;48.106;-1.696;2022-10-26T15:16:26;12.98;;;2.70;;
22967;SDS011;11650;48.106;-1.696;2022-10-26T15:19:15;10.98;;;2.58;;
22967;SDS011;11650;48.106;-1.696;2022-10-26T15:21:47;13.00;;;2.33;;
22967;SDS011;11650;48.106;-1.696;2022-10-26T15:27:20;8.02;;;2.13;;
22967;SDS011;11650;48.106;-1.696;2022-10-26T15:29:50;10.20;;;2.00;;
22967;SDS011;11650;48.106;-1.696;2022-10-26T15:32:32;9.65;;;1.90;;
22967;SDS011;11650;48.106;-1.696;2022-10-26T15:37:46;11.63;;;2.20;;
22967;SDS011;11650;48.106;-1.696;2022-10-26T15:40:13;12.85;;;2.40;;
22967;SDS011;11650;48.106;-1.696;2022-10-26T15:42:40;10.98;;;2.20;;
22967;SDS011;11650;48.106;-1.696;2022-10-26T15:45:17;8.15;;;2.13;;
22967;SDS011;11650;48.106;-1.696;2022-10-26T15:47:48;9.60;;;2.30;;
22967;SDS011;11650;48.106;-1.696;2022-10-26T15:50:20;9.23;;;2.00;;
22967;SDS011;11650;48.106;-1.696;2022-10-26T15:52:52;8.07;;;2.47;;
22967;SDS011;11650;48.106;-1.696;2022-10-26T15:55:32;11.48;;;2.55;;
22967;SDS011;11650;48.106;-1.696;2022-10-26T15:57:59;9.50;;;2.20;;
